x

Bay Of Campeche - 214 Nm Ne Of Veracruz, Mx (42055) Wave Buoy

11:50pm - Sun 29th Mar 2015 All times are UTC.

  • Sig Wave height 3.3ft
  • Swell Direction
  • Peak Period 6s
  • Average Period 5s
  • Wind
    16mph, 18mph gusts
  • Sea Temp 77°f
  • Air Temp 76°f
  • Sea Pressure 1019.4mb

More Historic Weather Station data

Upgrade to MSW Pro to gain access to the past 30 days of data for over 8000 Wavebouys and Weather Stations around the globe.

Join Pro

Comparision Forecast

View Surf forecast
   
Sun 03/29 11:50pm 3.5ft 6s 5s 16 18 mph 1019.4mb 77f 76f
10:50pm 3.5ft 6s 5s 16 18 mph 1019.1mb 77f 76f
9:50pm 3.5ft 6s 4s 16 18 mph 1019.4mb 77f 76f
8:50pm 3.5ft 6s 4s 16 18 mph 1019.9mb 77f 76f
7:50pm 3.5ft 5s 4s 16 20 mph 1020.7mb 77f 76f
6:50pm 3.5ft 5s 4s 16 18 mph 1021.2mb 77f 76f
5:50pm 3.5ft 6s 4s 16 18 mph 1021.8mb 77f 76f
4:50pm 3.5ft 6s 4s 18 20 mph 1022.2mb 76f 76f
3:50pm 3ft 6s 4s 16 20 mph 1022.5mb 76f 76f
2:50pm 3.5ft 6s 4s 16 18 mph 1022.2mb 76f 76f
1:50pm 3ft 6s 4s 18 20 mph 1021.3mb 76f 76f
12:50pm 3.5ft 6s 4s 16 20 mph 1020.9mb 76f 75f
11:50am 3ft 7s 4s 13 18 mph 1020.6mb 76f 75f
10:50am 3ft 6s 4s 13 16 mph 1019.6mb 76f 75f
9:50am 3.5ft 6s 5s 11 13 mph 1020mb 77f 75f
8:50am 3.5ft 7s 4s 13 16 mph 1020mb 77f 75f
7:50am 3.5ft 7s 5s 13 16 mph 1020.5mb 76f 75f
6:50am 3.5ft 7s 5s 13 16 mph 1021.3mb 77f 75f
5:50am 3ft 6s 4s 13 18 mph 1022mb 77f 75f
4:50am 3.5ft 7s 5s 13 18 mph 1022.2mb 77f 75f
3:50am 3.5ft 7s 5s 13 16 mph 1022.7mb 77f 76f
2:50am 3.5ft 7s 5s 11 13 mph 1021.9mb 77f 75f
1:50am 3.5ft 7s 5s 13 16 mph 1021.1mb 77f 75f
12:50am 4ft 7s 5s 13 16 mph 1020.5mb 77f 75f
Sat 03/28 11:50pm 4ft 8s 5s 11 13 mph 1020.3mb 77f 75f
10:50pm 4.5ft 8s 5s 11 16 mph 1020.1mb 77f 75f
9:50pm 4.5ft 8s 5s 11 13 mph 1020.4mb 77f 74f
8:50pm 4.5ft 8s 5s 13 18 mph 1020.6mb 77f 74f
7:50pm 4.5ft 8s 5s 13 16 mph 1021.1mb 77f 74f
6:50pm 4.5ft 8s 5s 13 18 mph 1022mb 77f 74f
5:50pm 4.5ft 8s 5s 13 20 mph 1022.8mb 77f 74f
4:50pm 4.5ft 8s 5s 16 18 mph 1023.1mb 77f 74f
3:50pm 4.5ft 9s 6s 13 20 mph 1023.2mb 76f 74f
2:50pm 4.5ft 7s 5s 13 18 mph 1023mb 76f 74f
1:50pm 4.5ft 9s 6s 11 16 mph 1022.8mb 76f 73f
12:50pm 5ft 8s 6s 11 16 mph 1022mb 76f 73f
11:50am 5.5ft 8s 6s 13 16 mph 1021.3mb 76f 73f
10:50am 5ft 9s 6s 13 18 mph 1020.8mb 76f 72f
9:50am 5ft 8s 6s 11 13 mph 1020.6mb 77f 72f
8:50am 5.5ft 8s 6s 9 13 mph 1020.7mb 77f 72f
7:50am 6ft 8s 6s 11 13 mph 1021.4mb 76f 71f
6:50am 6ft 9s 6s 11 16 mph 1022.1mb 76f 72f
5:50am 6ft 9s 6s 13 16 mph 1022.2mb 76f 71f
4:50am 6ft 9s 6s 13 18 mph 1021.9mb 76f 71f
3:50am 6.5ft 8s 6s 13 18 mph 1022.2mb 76f 71f
2:50am 7ft 9s 6s 16 22 mph 1021.5mb 76f 71f
1:50am 7ft 9s 6s 16 22 mph 1021.2mb 76f 71f
12:50am 7ft 9s 6s 20 22 mph 1019.5mb 76f 72f
Fri 03/27 11:50pm 8ft 9s 6s 20 25 mph 1019mb 77f 72f
10:50pm 8.5ft 9s 6s 20 25 mph 1018.7mb 77f 72f
9:50pm 8ft 9s 6s 22 27 mph 1018.7mb 77f 72f
8:50pm 8.5ft 8s 6s 25 29 mph 1018.5mb 77f 72f
7:50pm 9ft 8s 6s 25 29 mph 1018.9mb 77f 73f
6:50pm 9ft 8s 6s 25 31 mph 1019.3mb 77f 73f
5:50pm 9ft 8s 6s 25 27 mph 1019.6mb 77f 73f
4:50pm 9.5ft 8s 6s 25 31 mph 1019.7mb 77f 74f
3:50pm 9.5ft 8s 6s 27 34 mph 1019.1mb 77f 74f
2:50pm 9ft 7s 6s 27 31 mph 1018.5mb 77f 74f
1:50pm 8ft 6s 5s 29 34 mph 1017.1mb 78f 74f
12:50pm 7ft 6s 5s 29 36 mph 1016.1mb 78f 74f
11:50am 5.5ft 5s 5s 29 34 mph 1015.1mb 78f 75f
10:50am 4.5ft 5s 4s 27 31 mph 1013.8mb 78f 76f
9:50am 4ft 6s 4s 22 27 mph 1013.6mb 78f 76f
8:50am 3.5ft 6s 4s 22 27 mph 1013.3mb 78f 76f
7:50am 3.5ft 7s 5s 22 27 mph 1013.4mb 78f 77f
6:50am 3ft 6s 5s 11 13 mph 1013.8mb 78f 77f
5:50am 3ft 6s 5s 11
mph
1013.4mb 78f 78f
4:50am 3.5ft 6s 5s 9 11 mph 1013.3mb 78f 78f
3:50am 3ft 6s 5s 11 13 mph 1012.9mb 78f 78f
2:50am 3ft 6s 5s 11 13 mph 1012.2mb 78f 78f
1:50am 3ft 6s 5s 9 11 mph 1011.2mb 78f 78f
12:50am 3ft 6s 5s 7
mph
1010.6mb 78f 78f
Thu 03/26 11:50pm 3ft 6s 5s 7
mph
1009.2mb 79f 78f
10:50pm 2.5ft 5s 4s 9
mph
1008.9mb 79f 78f
9:50pm 3ft 5s 4s 11 13 mph 1008.6mb 79f 78f
8:50pm 3ft 5s 4s 13 16 mph 1009.1mb 79f 78f
7:50pm 3ft 5s 4s 13 16 mph 1009.9mb 79f 78f
6:50pm 2.5ft 5s 4s 13 16 mph 1010.6mb 78f 78f
5:50pm 2.5ft 5s 4s 13 16 mph 1011.4mb 78f 78f
4:50pm 2.5ft 4s 4s 13 18 mph 1011.8mb 78f 79f
3:50pm 2.5ft 4s 4s 16 18 mph 1011.6mb 78f 79f
2:50pm 2.5ft 4s 4s 13 18 mph 1011.4mb 78f 79f
1:50pm 2.5ft 4s 3s 16 20 mph 1010.7mb 78f 79f
12:50pm 2.5ft 3s 3s 18 20 mph 1009.4mb 78f 78f
11:50am 2.5ft 4s 3s 22 25 mph 1008.3mb 78f 77f
10:50am 1.6ft 4s 3s 22 27 mph 1009mb 78f 77f
9:50am 1.6ft 4s 4s 13 18 mph 1010.9mb 78f 77f
8:50am 1.3ft 4s 4s 9 11 mph 1011.4mb 78f 78f
7:50am 1.6ft 4s 4s 13 16 mph 1011.7mb 78f 78f
6:50am 1.6ft 4s 4s 9 11 mph 1012.2mb 78f 77f
5:50am 1.6ft 4s 4s 11 13 mph 1011.9mb 78f 78f
4:50am 1.6ft 4s 4s 11 13 mph 1012.5mb 78f 78f
3:50am 1.6ft 4s 4s 13 16 mph 1012.6mb 78f 78f
2:50am 2ft 4s 4s 13
mph
1012mb 78f 78f
1:50am 2ft 4s 4s 16 18 mph 1011.3mb 78f 78f
12:50am 2ft 4s 4s 16 18 mph 1011.1mb 78f 78f